Time;durP1;ratioP1;P1;durP2;ratioP2;P2;SDS_P1;SDS_P2;PMS_P1;PMS_P2;Temp;Humidity;BMP_temperature;BMP_pressure;BME280_temperature;BME280_humidity;BME280_pressure;Samples;Min_cycle;Max_cycle;Signal;HPM_P1;HPM_P2
2023/08/25 00:01:16;;;;;;;13.05;9.70;;;21.10;99.90;;;;;;5049397;28;20032;-45
2023/08/25 00:03:42;;;;;;;19.35;11.23;;;21.10;99.90;;;;;;5033747;28;20025;-37
2023/08/25 00:06:07;;;;;;;11.63;9.18;;;21.10;99.90;;;;;;5048760;28;20092;-38
2023/08/25 00:08:33;;;;;;;22.65;12.32;;;21.10;99.90;;;;;;5050826;28;20057;-38
2023/08/25 00:10:59;;;;;;;15.73;10.80;;;21.10;99.90;;;;;;5053114;28;20025;-39
2023/08/25 00:13:25;;;;;;;14.93;10.65;;;21.10;99.90;;;;;;5052190;28;20017;-40
2023/08/25 00:15:50;;;;;;;12.88;9.32;;;21.10;99.90;;;;;;5056787;28;20033;-41
2023/08/25 00:18:16;;;;;;;22.67;13.50;;;21.10;99.90;;;;;;5040325;28;20021;-38
2023/08/25 00:20:42;;;;;;;14.20;10.43;;;21.10;99.90;;;;;;5053050;28;20033;-40
2023/08/25 00:23:08;;;;;;;22.15;12.68;;;21.10;99.90;;;;;;5052206;28;20033;-39
2023/08/25 00:25:34;;;;;;;17.42;12.05;;;21.10;99.90;;;;;;5052818;28;20477;-39
2023/08/25 00:28:00;;;;;;;13.50;10.50;;;21.10;99.90;;;;;;5052994;28;20063;-41
2023/08/25 00:30:26;;;;;;;20.52;12.82;;;21.10;99.90;;;;;;5052258;28;20025;-51
2023/08/25 00:32:52;;;;;;;17.42;11.00;;;21.00;99.90;;;;;;5052501;28;20106;-49
2023/08/25 00:35:18;;;;;;;22.23;13.15;;;21.00;99.90;;;;;;5053097;28;20025;-53
2023/08/25 00:37:43;;;;;;;21.08;13.23;;;21.00;99.90;;;;;;5052939;28;20021;-52
2023/08/25 00:40:10;;;;;;;20.27;14.02;;;21.00;99.90;;;;;;5052711;28;20036;-48
2023/08/25 00:42:36;;;;;;;24.77;15.10;;;20.90;99.90;;;;;;5052945;28;20056;-51
2023/08/25 00:45:02;;;;;;;24.02;14.30;;;20.90;99.90;;;;;;5052699;28;20114;-52
2023/08/25 00:47:28;;;;;;;20.90;13.43;;;20.90;99.90;;;;;;5052025;28;20507;-51
2023/08/25 00:49:54;;;;;;;16.95;11.55;;;20.90;99.90;;;;;;5035338;28;20021;-51
2023/08/25 00:52:22;;;;;;;21.83;14.10;;;20.90;99.90;;;;;;5052578;28;20036;-48
2023/08/25 00:54:53;;;;;;;22.30;13.73;;;20.90;99.90;;;;;;5052641;28;20025;-48
2023/08/25 00:57:19;;;;;;;21.55;14.00;;;20.90;99.90;;;;;;5051938;28;20051;-49
2023/08/25 00:59:45;;;;;;;25.15;15.15;;;20.90;99.90;;;;;;5051731;28;20250;-51
2023/08/25 01:02:12;;;;;;;22.60;14.30;;;20.80;99.90;;;;;;5052466;28;20035;-47
2023/08/25 01:04:38;;;;;;;25.73;15.32;;;20.90;99.90;;;;;;5051951;28;20029;-50
2023/08/25 01:07:04;;;;;;;20.38;13.68;;;20.80;99.90;;;;;;5056885;28;20123;-49
2023/08/25 01:09:31;;;;;;;29.58;16.35;;;20.80;99.90;;;;;;5056699;28;20053;-43
2023/08/25 01:12:04;;;;;;;25.63;15.25;;;20.80;99.90;;;;;;5056844;28;20087;-49
2023/08/25 01:15:07;;;;;;;25.60;15.35;;;20.80;99.90;;;;;;5055632;28;20397;-51
2023/08/25 01:17:59;;;;;;;24.85;14.52;;;20.80;99.90;;;;;;5036502;28;20141;-50
2023/08/25 01:20:26;;;;;;;27.88;15.13;;;20.80;99.90;;;;;;5047188;28;20413;-51
2023/08/25 01:23:10;;;;;;;26.75;16.00;;;20.80;99.90;;;;;;5056422;28;20037;-51
2023/08/25 01:25:37;;;;;;;22.50;14.70;;;20.80;99.90;;;;;;5056513;28;20028;-50
2023/08/25 01:28:04;;;;;;;24.85;14.32;;;20.70;99.90;;;;;;5054785;28;20503;-43
2023/08/25 01:30:35;;;;;;;31.25;17.65;;;20.80;99.90;;;;;;5049825;28;20029;-51
2023/08/25 01:33:03;;;;;;;22.67;15.48;;;20.70;99.90;;;;;;5054483;28;20565;-49
2023/08/25 01:35:53;;;;;;;28.42;18.33;;;20.70;99.90;;;;;;5053940;28;20082;-50
2023/08/25 01:38:33;;;;;;;27.88;16.77;;;20.70;99.90;;;;;;5053330;28;20066;-50
2023/08/25 01:41:16;;;;;;;31.60;17.23;;;20.70;99.90;;;;;;5055595;28;20556;-52
2023/08/25 01:43:46;;;;;;;31.20;16.40;;;20.70;99.90;;;;;;5054454;28;20563;-51
2023/08/25 01:46:15;;;;;;;34.50;18.25;;;20.60;99.90;;;;;;5055360;28;20037;-50
2023/08/25 01:48:43;;;;;;;29.58;17.73;;;20.60;99.90;;;;;;5055071;28;20500;-49
2023/08/25 01:51:10;;;;;;;29.13;17.30;;;20.60;99.90;;;;;;5056204;28;20021;-51
2023/08/25 01:53:36;;;;;;;30.35;17.52;;;20.60;99.90;;;;;;5056107;28;20017;-50
2023/08/25 01:56:02;;;;;;;31.52;18.40;;;20.60;99.90;;;;;;5055800;28;20029;-51
2023/08/25 01:58:28;;;;;;;34.33;19.08;;;20.60;99.90;;;;;;5054309;28;20489;-49
2023/08/25 02:00:54;;;;;;;29.83;17.08;;;20.60;99.90;;;;;;5050933;28;20032;-51
2023/08/25 02:03:19;;;;;;;32.70;18.45;;;20.60;99.90;;;;;;5053649;28;20028;-51
2023/08/25 02:05:45;;;;;;;40.05;20.98;;;20.70;99.90;;;;;;5052999;28;20082;-52
2023/08/25 02:08:11;;;;;;;27.30;16.48;;;20.70;99.90;;;;;;5053473;28;20513;-50
2023/08/25 02:10:36;;;;;;;33.42;17.77;;;20.70;99.90;;;;;;5054822;28;20056;-53
2023/08/25 02:13:02;;;;;;;36.17;19.40;;;20.80;99.90;;;;;;5054280;28;20025;-50
2023/08/25 02:15:27;;;;;;;32.70;18.27;;;20.80;99.90;;;;;;5055360;28;20577;-52
2023/08/25 02:17:53;;;;;;;35.58;17.95;;;20.80;99.90;;;;;;5054676;28;20052;-51
2023/08/25 02:20:19;;;;;;;39.85;19.80;;;20.80;99.90;;;;;;5055387;28;20481;-52
2023/08/25 02:22:44;;;;;;;33.65;18.00;;;20.70;99.90;;;;;;5055397;28;20029;-53
2023/08/25 02:25:10;;;;;;;36.03;19.73;;;20.80;99.90;;;;;;5052886;28;20028;-50
2023/08/25 02:27:36;;;;;;;41.80;21.55;;;20.80;99.90;;;;;;5054052;28;20474;-50
2023/08/25 02:30:03;;;;;;;39.97;21.52;;;20.80;99.90;;;;;;5054011;28;20021;-51
2023/08/25 02:32:28;;;;;;;37.10;19.98;;;20.80;99.90;;;;;;5053453;28;20102;-52
2023/08/25 02:34:54;;;;;;;38.55;19.77;;;20.80;99.90;;;;;;5055275;28;20033;-52
2023/08/25 02:37:20;;;;;;;41.97;22.70;;;20.80;99.90;;;;;;5055104;28;20477;-52
2023/08/25 02:39:45;;;;;;;39.67;21.80;;;20.80;99.90;;;;;;5055231;28;20531;-52
2023/08/25 02:42:12;;;;;;;35.38;19.95;;;20.80;99.90;;;;;;5054310;28;20024;-51
2023/08/25 02:44:38;;;;;;;37.10;20.17;;;20.80;99.90;;;;;;5054887;28;20037;-52
2023/08/25 02:47:03;;;;;;;48.70;23.02;;;20.80;99.90;;;;;;5052617;28;20029;-51
2023/08/25 02:49:29;;;;;;;41.88;22.80;;;20.80;99.90;;;;;;5053991;28;20033;-52
2023/08/25 02:51:56;;;;;;;38.83;22.15;;;20.80;99.90;;;;;;5053546;28;20462;-52
2023/08/25 02:54:23;;;;;;;40.43;20.73;;;20.70;99.90;;;;;;5054743;28;20033;-52
2023/08/25 02:56:48;;;;;;;26.48;14.82;;;20.70;99.90;;;;;;5054747;28;20104;-51
2023/08/25 02:59:14;;;;;;;39.17;20.55;;;20.70;99.90;;;;;;5054611;28;20052;-48
2023/08/25 03:01:40;;;;;;;38.63;19.90;;;20.70;99.90;;;;;;5053967;28;20094;-52
2023/08/25 03:04:05;;;;;;;42.03;21.48;;;20.80;99.90;;;;;;5053030;28;20365;-50
2023/08/25 03:06:31;;;;;;;39.72;20.15;;;20.80;99.90;;;;;;5054495;28;20147;-51
2023/08/25 03:08:57;;;;;;;53.35;25.60;;;20.70;99.90;;;;;;5054249;28;20025;-51
2023/08/25 03:11:22;;;;;;;50.33;23.98;;;20.70;99.90;;;;;;5053678;28;20028;-52
2023/08/25 03:13:48;;;;;;;47.13;23.48;;;20.60;99.90;;;;;;5054368;28;20108;-49
2023/08/25 03:16:13;;;;;;;43.22;21.58;;;20.60;99.90;;;;;;5054236;28;20021;-50
2023/08/25 03:18:40;;;;;;;47.33;22.40;;;20.60;99.90;;;;;;5053416;28;20025;-49
2023/08/25 03:21:05;;;;;;;43.95;21.77;;;20.60;99.90;;;;;;5053748;28;20025;-49
2023/08/25 03:23:31;;;;;;;45.97;21.48;;;20.70;99.90;;;;;;5054512;28;20071;-49
2023/08/25 03:25:57;;;;;;;49.10;23.45;;;20.70;99.90;;;;;;5053718;28;20112;-51
2023/08/25 03:28:23;;;;;;;47.88;23.70;;;20.70;99.90;;;;;;5050831;28;20025;-51
2023/08/25 03:30:53;;;;;;;38.88;19.70;;;20.50;99.90;;;;;;5043046;28;20040;-51
2023/08/25 03:33:19;;;;;;;41.08;19.48;;;20.60;99.90;;;;;;5033746;28;20033;-51
2023/08/25 03:35:44;;;;;;;40.53;19.77;;;20.60;99.90;;;;;;5052999;28;20078;-50
2023/08/25 03:38:10;;;;;;;42.38;20.42;;;20.70;99.90;;;;;;5034660;28;20036;-53
2023/08/25 03:40:35;;;;;;;36.00;17.80;;;20.70;99.90;;;;;;5034295;28;20025;-49
2023/08/25 03:43:01;;;;;;;53.67;22.45;;;20.70;99.90;;;;;;5051746;28;20025;-49
2023/08/25 03:45:27;;;;;;;47.58;22.80;;;20.80;99.90;;;;;;5053664;28;20482;-50
2023/08/25 03:47:52;;;;;;;41.53;21.70;;;20.80;99.90;;;;;;5051583;28;20512;-53
2023/08/25 03:50:18;;;;;;;40.92;20.42;;;20.80;99.90;;;;;;5052868;28;20104;-50
2023/08/25 03:52:44;;;;;;;45.25;22.05;;;20.80;99.90;;;;;;5053812;28;20021;-52
2023/08/25 03:55:09;;;;;;;41.65;21.08;;;20.80;99.90;;;;;;5053874;28;20036;-51
2023/08/25 03:57:35;;;;;;;43.28;21.10;;;20.90;99.90;;;;;;5052288;28;21026;-51
2023/08/25 04:00:01;;;;;;;44.45;22.55;;;20.80;99.90;;;;;;5053359;28;20029;-51
2023/08/25 04:02:27;;;;;;;44.67;20.50;;;20.90;99.90;;;;;;5053402;28;20036;-50
2023/08/25 04:04:52;;;;;;;46.78;23.98;;;20.90;99.90;;;;;;5052057;28;20067;-51
2023/08/25 04:07:18;;;;;;;44.22;21.15;;;20.90;99.90;;;;;;5053135;28;20070;-45
2023/08/25 04:09:44;;;;;;;45.55;21.15;;;20.90;99.90;;;;;;5033465;28;20022;-42
2023/08/25 04:12:10;;;;;;;42.78;20.70;;;20.90;99.90;;;;;;5033607;28;20694;-50
2023/08/25 04:14:36;;;;;;;34.10;19.40;;;20.90;99.90;;;;;;5041321;28;20036;-52
2023/08/25 04:17:01;;;;;;;32.50;17.77;;;20.90;99.90;;;;;;5050600;28;20033;-51
2023/08/25 04:19:27;;;;;;;39.00;20.08;;;20.90;99.90;;;;;;5048331;28;20393;-52
2023/08/25 04:21:52;;;;;;;43.80;21.52;;;20.90;99.90;;;;;;5052416;28;20082;-51
2023/08/25 04:24:19;;;;;;;39.72;19.65;;;20.90;99.90;;;;;;5031688;28;20120;-50
2023/08/25 04:26:45;;;;;;;42.65;20.25;;;20.90;99.90;;;;;;5038029;28;20035;-52
2023/08/25 04:29:10;;;;;;;37.92;19.15;;;20.90;99.90;;;;;;5048282;28;20101;-50
2023/08/25 04:31:37;;;;;;;37.63;18.95;;;20.90;99.90;;;;;;5049662;28;20017;-51
2023/08/25 04:34:05;;;;;;;41.67;19.20;;;20.90;99.90;;;;;;5050864;28;20485;-53
2023/08/25 04:36:32;;;;;;;36.72;19.55;;;20.90;99.90;;;;;;5051654;28;20398;-46
2023/08/25 04:38:58;;;;;;;38.72;19.45;;;20.90;99.90;;;;;;5051295;28;20475;-51
2023/08/25 04:41:23;;;;;;;33.72;18.20;;;21.00;99.90;;;;;;5050804;28;20156;-49
2023/08/25 04:43:49;;;;;;;39.28;19.73;;;21.00;99.90;;;;;;5051203;28;21009;-39
2023/08/25 04:46:15;;;;;;;34.13;17.77;;;21.00;99.90;;;;;;5033250;28;20025;-39
2023/08/25 04:48:45;;;;;;;30.23;16.52;;;21.00;99.90;;;;;;5051446;28;20025;-38
2023/08/25 04:51:11;;;;;;;31.55;17.15;;;21.00;99.90;;;;;;5051256;28;20025;-40
2023/08/25 04:53:37;;;;;;;37.15;19.70;;;20.90;99.90;;;;;;5033922;28;20206;-39
2023/08/25 04:56:03;;;;;;;35.50;19.88;;;21.00;99.90;;;;;;5049518;28;20029;-39
2023/08/25 04:58:28;;;;;;;42.17;20.17;;;21.00;99.90;;;;;;5051736;28;20378;-39
2023/08/25 05:00:54;;;;;;;46.67;21.23;;;21.00;99.90;;;;;;5052677;28;20464;-38
2023/08/25 05:03:20;;;;;;;42.22;20.50;;;21.00;99.90;;;;;;5051809;28;20489;-40
2023/08/25 05:05:45;;;;;;;32.35;17.58;;;21.00;99.90;;;;;;5051949;28;20389;-39
2023/08/25 05:08:11;;;;;;;39.30;18.35;;;21.00;99.90;;;;;;5052456;28;20029;-40
2023/08/25 05:10:37;;;;;;;32.65;17.88;;;21.00;99.90;;;;;;5051458;28;20091;-42
2023/08/25 05:13:03;;;;;;;40.33;19.42;;;21.10;99.90;;;;;;5052840;28;20029;-39
2023/08/25 05:15:29;;;;;;;30.13;17.02;;;21.00;99.90;;;;;;5052003;28;20020;-38
2023/08/25 05:17:54;;;;;;;34.20;17.90;;;21.00;99.90;;;;;;5052811;28;20067;-39
2023/08/25 05:20:23;;;;;;;37.42;18.33;;;21.10;99.90;;;;;;5050046;28;20053;-40
2023/08/25 05:22:50;;;;;;;31.83;16.85;;;21.10;99.90;;;;;;5052436;28;20033;-38
2023/08/25 05:25:17;;;;;;;;;;;21.10;99.90;;;;;;5034544;28;20029;-40
2023/08/25 05:27:42;;;;;;;34.27;18.00;;;21.10;99.90;;;;;;5051509;28;20381;-41
2023/08/25 05:30:09;;;;;;;38.03;19.38;;;21.10;99.90;;;;;;5052442;28;20029;-38
2023/08/25 05:32:34;;;;;;;32.78;17.48;;;21.00;99.90;;;;;;5052476;28;20049;-39
2023/08/25 05:35:00;;;;;;;30.27;17.05;;;21.10;99.90;;;;;;5049844;28;20075;-39
2023/08/25 05:37:25;;;;;;;28.50;17.40;;;21.10;99.90;;;;;;5052394;28;20033;-39
2023/08/25 05:39:52;;;;;;;32.95;17.88;;;21.20;99.90;;;;;;5052390;28;20083;-38
2023/08/25 05:42:18;;;;;;;39.35;19.02;;;21.20;99.90;;;;;;5026912;28;20038;-40
2023/08/25 05:44:43;;;;;;;29.83;16.92;;;21.20;99.90;;;;;;5040577;28;20048;-42
2023/08/25 05:47:09;;;;;;;33.83;18.80;;;21.20;99.90;;;;;;5052176;28;20028;-38
2023/08/25 05:49:34;;;;;;;33.13;17.27;;;21.20;99.90;;;;;;5051424;28;20029;-42
2023/08/25 05:52:00;;;;;;;33.15;17.08;;;21.20;99.90;;;;;;5049871;28;20025;-39
2023/08/25 05:54:26;;;;;;;36.95;17.95;;;21.30;99.90;;;;;;5035840;28;20478;-39
2023/08/25 05:56:53;;;;;;;32.65;17.83;;;21.30;99.90;;;;;;5045871;28;20033;-38
2023/08/25 05:59:19;;;;;;;38.05;17.50;;;21.30;99.90;;;;;;5047544;28;20029;-41
2023/08/25 06:01:45;;;;;;;34.63;18.90;;;21.30;99.90;;;;;;5055760;28;20104;-42
2023/08/25 06:04:11;;;;;;;38.78;20.00;;;21.30;99.90;;;;;;5054379;28;20032;-38
2023/08/25 06:06:38;;;;;;;36.95;18.73;;;21.30;99.90;;;;;;5054288;28;20033;-39
2023/08/25 06:09:04;;;;;;;40.80;18.42;;;21.30;99.90;;;;;;5051411;28;20056;-40
2023/08/25 06:11:29;;;;;;;38.67;19.10;;;21.30;99.90;;;;;;5050549;28;20056;-40
2023/08/25 06:13:55;;;;;;;30.60;15.25;;;21.30;99.90;;;;;;5055492;28;20397;-38
2023/08/25 06:16:21;;;;;;;30.25;16.25;;;21.30;99.90;;;;;;5055294;28;20377;-38
2023/08/25 06:18:46;;;;;;;33.13;17.15;;;21.40;99.90;;;;;;5055376;28;20392;-41
2023/08/25 06:21:12;;;;;;;33.03;16.38;;;21.40;99.90;;;;;;5055398;28;20470;-39
2023/08/25 06:23:38;;;;;;;38.55;19.65;;;21.40;99.90;;;;;;5055292;28;20029;-38
2023/08/25 06:26:06;;;;;;;45.67;19.73;;;21.40;99.90;;;;;;5054248;28;20370;-41
2023/08/25 06:28:33;;;;;;;38.08;19.45;;;21.40;99.90;;;;;;5055456;28;20466;-41
2023/08/25 06:30:59;;;;;;;40.60;18.60;;;21.40;99.90;;;;;;5055264;28;20504;-38
2023/08/25 06:33:29;;;;;;;42.55;21.70;;;21.50;99.90;;;;;;5054819;28;20044;-39
2023/08/25 06:35:56;;;;;;;40.05;19.92;;;21.50;99.90;;;;;;5055651;28;20474;-38
2023/08/25 06:38:22;;;;;;;38.97;19.13;;;21.50;99.90;;;;;;5054981;28;20533;-39
2023/08/25 06:40:48;;;;;;;37.40;19.55;;;21.60;99.90;;;;;;5055055;28;20040;-40
2023/08/25 06:43:14;;;;;;;34.25;17.25;;;21.60;99.90;;;;;;5054300;28;20393;-38
2023/08/25 06:48:23;;;;;;;42.92;19.83;;;21.70;99.90;;;;;;5053776;28;20043;-38
2023/08/25 06:50:49;;;;;;;48.75;20.55;;;21.70;99.90;;;;;;5053568;28;20111;-39
2023/08/25 06:53:15;;;;;;;39.65;19.58;;;21.70;99.90;;;;;;5046928;28;20537;-41
2023/08/25 06:55:41;;;;;;;42.42;20.35;;;21.70;99.90;;;;;;5046645;28;20547;-39
2023/08/25 06:58:07;;;;;;;36.83;17.77;;;21.80;99.90;;;;;;5034797;28;20041;-39
2023/08/25 07:00:33;;;;;;;31.27;16.50;;;21.90;99.90;;;;;;5041998;28;20115;-40
2023/08/25 07:03:00;;;;;;;34.90;18.45;;;21.90;99.90;;;;;;5053628;28;20055;-39
2023/08/25 07:05:25;;;;;;;40.10;19.27;;;22.00;99.90;;;;;;5045707;28;20033;-39
2023/08/25 07:07:51;;;;;;;35.20;16.40;;;22.10;99.90;;;;;;5049532;28;20469;-40
2023/08/25 07:10:17;;;;;;;34.97;17.17;;;22.10;99.90;;;;;;5054479;28;20119;-40
2023/08/25 07:12:43;;;;;;;45.10;19.60;;;22.10;99.90;;;;;;5049213;28;20051;-39
2023/08/25 07:15:10;;;;;;;34.15;17.42;;;22.10;99.90;;;;;;5043158;28;20052;-41
2023/08/25 07:17:36;;;;;;;37.33;17.73;;;22.20;99.90;;;;;;5053513;28;20025;-42
2023/08/25 07:20:04;;;;;;;40.83;19.80;;;22.20;99.90;;;;;;5054521;28;20021;-41
2023/08/25 07:22:30;;;;;;;43.35;20.45;;;22.20;99.90;;;;;;5054528;28;20036;-40
2023/08/25 07:24:58;;;;;;;39.90;20.13;;;22.10;99.90;;;;;;5054211;28;20025;-40
2023/08/25 07:27:23;;;;;;;49.03;21.65;;;22.00;99.90;;;;;;5048559;28;20280;-41
2023/08/25 07:29:52;;;;;;;41.47;19.45;;;21.90;99.90;;;;;;5051306;28;20477;-38
2023/08/25 07:32:18;;;;;;;41.55;20.80;;;21.80;99.90;;;;;;5043980;28;20118;-38
2023/08/25 07:34:47;;;;;;;43.63;20.45;;;21.70;99.90;;;;;;5047493;28;20061;-40
2023/08/25 07:37:13;;;;;;;48.92;22.20;;;21.70;99.90;;;;;;5044347;28;20454;-39
2023/08/25 07:39:42;;;;;;;37.97;18.17;;;21.50;99.90;;;;;;5046969;28;20041;-39
2023/08/25 07:42:08;;;;;;;39.10;18.48;;;21.50;99.90;;;;;;5051790;28;20021;-41
2023/08/25 07:44:36;;;;;;;41.60;20.70;;;21.60;99.90;;;;;;5039867;28;20025;-38
2023/08/25 07:47:04;;;;;;;42.78;19.90;;;21.70;99.90;;;;;;5042753;28;20500;-40
2023/08/25 07:49:29;;;;;;;40.08;17.92;;;21.80;99.90;;;;;;5044815;28;20021;-40
2023/08/25 07:51:55;;;;;;;35.75;17.63;;;21.90;99.90;;;;;;5048298;28;20025;-40
2023/08/25 07:54:21;;;;;;;36.30;16.92;;;22.00;99.90;;;;;;5051568;28;20473;-39
2023/08/25 07:56:46;;;;;;;32.58;17.15;;;22.10;99.90;;;;;;5052279;28;20036;-41
2023/08/25 07:59:12;;;;;;;42.10;17.80;;;22.20;99.90;;;;;;5053371;28;20516;-42
2023/08/25 08:01:38;;;;;;;32.80;15.68;;;22.30;99.90;;;;;;5052731;28;20116;-42
2023/08/25 08:04:03;;;;;;;40.25;19.00;;;22.40;99.90;;;;;;5052352;28;20036;-41
2023/08/25 08:06:30;;;;;;;41.83;19.30;;;22.40;99.90;;;;;;5045354;28;20017;-39
2023/08/25 08:08:56;;;;;;;35.55;17.58;;;22.30;99.90;;;;;;5051791;28;20036;-40
2023/08/25 08:11:21;;;;;;;34.30;16.50;;;22.30;99.90;;;;;;5052000;28;20462;-42
2023/08/25 08:13:47;;;;;;;28.55;15.45;;;22.50;99.90;;;;;;5048349;28;20021;-42
2023/08/25 08:16:13;;;;;;;29.80;14.13;;;22.50;99.90;;;;;;5049359;28;20385;-42
2023/08/25 08:18:39;;;;;;;32.70;17.67;;;22.70;99.90;;;;;;5052301;28;20449;-39
2023/08/25 08:21:04;;;;;;;37.13;16.75;;;22.80;99.90;;;;;;5053194;28;20040;-42
2023/08/25 08:23:30;;;;;;;31.60;16.33;;;22.90;99.90;;;;;;5053128;28;20033;-38
2023/08/25 08:25:56;;;;;;;37.22;15.38;;;23.10;99.90;;;;;;5052475;28;20481;-38
2023/08/25 08:28:22;;;;;;;24.30;12.35;;;23.30;99.90;;;;;;5049350;28;20044;-39
2023/08/25 08:30:47;;;;;;;31.38;11.52;;;23.40;99.90;;;;;;5051573;28;20032;-39
2023/08/25 08:33:13;;;;;;;29.73;13.98;;;23.40;99.90;;;;;;5051990;28;20033;-39
2023/08/25 08:35:40;;;;;;;22.00;11.93;;;23.30;99.90;;;;;;5052136;28;20521;-40
2023/08/25 08:38:05;;;;;;;17.60;11.07;;;23.30;99.90;;;;;;5050212;28;20056;-40
2023/08/25 08:40:32;;;;;;;25.80;11.43;;;23.30;99.90;;;;;;5043877;28;20083;-40
2023/08/25 08:43:02;;;;;;;25.88;11.07;;;23.30;99.90;;;;;;5053169;28;20028;-40
2023/08/25 08:45:33;;;;;;;29.38;12.80;;;23.20;99.90;;;;;;5048590;28;20064;-38
2023/08/25 08:48:00;;;;;;;25.95;12.30;;;23.20;99.90;;;;;;5050313;28;20441;-40
2023/08/25 08:50:26;;;;;;;38.40;13.30;;;23.10;99.90;;;;;;5031222;28;20762;-40
2023/08/25 08:52:53;;;;;;;44.50;15.27;;;23.10;99.90;;;;;;5051493;28;20025;-39
2023/08/25 08:55:20;;;;;;;23.15;11.00;;;23.10;99.90;;;;;;5049510;28;20021;-39
2023/08/25 08:57:45;;;;;;;24.93;14.13;;;23.10;99.90;;;;;;5049193;28;20083;-38
2023/08/25 09:00:12;;;;;;;24.08;12.57;;;23.20;99.90;;;;;;5047929;28;20639;-38
2023/08/25 09:02:43;;;;;;;19.23;10.60;;;23.30;99.90;;;;;;5049688;28;20389;-40
2023/08/25 09:05:12;;;;;;;23.05;9.88;;;23.30;99.90;;;;;;5052564;28;20389;-41
2023/08/25 09:07:39;;;;;;;24.73;11.50;;;23.40;99.90;;;;;;5051331;28;20082;-39
2023/08/25 09:10:05;;;;;;;28.85;12.77;;;23.50;99.90;;;;;;5047133;28;20044;-38
2023/08/25 09:12:31;;;;;;;19.42;11.95;;;23.50;99.90;;;;;;5052337;28;20040;-39
2023/08/25 09:14:57;;;;;;;26.70;13.55;;;23.60;99.90;;;;;;5052107;28;20025;-39
2023/08/25 09:17:23;;;;;;;30.75;14.63;;;23.60;99.90;;;;;;5051552;28;20389;-38
2023/08/25 09:19:49;;;;;;;28.45;13.48;;;23.70;99.90;;;;;;5033923;28;20021;-39
2023/08/25 09:22:16;;;;;;;28.13;13.37;;;23.90;99.90;;;;;;5049955;28;20117;-40
2023/08/25 09:24:43;;;;;;;22.92;12.30;;;24.10;99.90;;;;;;5049135;28;20059;-40
2023/08/25 09:27:26;;;;;;;23.75;13.05;;;24.20;99.90;;;;;;5053985;28;20028;-40
2023/08/25 09:30:06;;;;;;;32.47;13.80;;;24.30;99.90;;;;;;5052681;28;20033;-39
2023/08/25 09:32:32;;;;;;;24.83;11.35;;;24.40;99.90;;;;;;5038989;28;20026;-39
2023/08/25 09:35:12;;;;;;;24.13;12.82;;;24.60;99.90;;;;;;5054905;28;20044;-38
2023/08/25 09:37:42;;;;;;;24.73;12.32;;;24.90;99.90;;;;;;5056484;28;20029;-39
2023/08/25 09:40:27;;;;;;;18.70;9.77;;;25.10;99.90;;;;;;5056211;28;20025;-40
2023/08/25 09:43:00;;;;;;;14.98;7.95;;;25.00;99.90;;;;;;5056162;28;20033;-40
2023/08/25 09:45:31;;;;;;;15.25;8.93;;;24.90;99.90;;;;;;5056038;28;20070;-38
2023/08/25 09:48:07;;;;;;;21.65;10.60;;;24.80;99.90;;;;;;5056049;28;20025;-41
2023/08/25 09:50:38;;;;;;;23.77;11.45;;;24.60;99.90;;;;;;5055652;28;20482;-38
2023/08/25 09:53:06;;;;;;;16.13;9.80;;;24.40;99.90;;;;;;5056237;28;20025;-41
2023/08/25 09:55:34;;;;;;;14.07;8.60;;;24.20;99.90;;;;;;5055964;28;20040;-39
2023/08/25 09:57:59;;;;;;;18.17;9.35;;;24.20;99.90;;;;;;5056053;28;20113;-39
2023/08/25 10:00:26;;;;;;;12.38;6.97;;;24.10;99.90;;;;;;5056103;28;20048;-42
2023/08/25 10:02:53;;;;;;;20.60;10.50;;;24.10;99.90;;;;;;5055859;28;20401;-39
2023/08/25 10:05:20;;;;;;;32.53;13.93;;;24.00;99.90;;;;;;5055969;28;20087;-38
2023/08/25 10:07:45;;;;;;;31.88;16.90;;;24.10;99.90;;;;;;5051862;28;20021;-40
2023/08/25 10:10:11;;;;;;;34.13;18.25;;;24.00;99.90;;;;;;5054705;28;20389;-42
2023/08/25 10:12:38;;;;;;;30.65;16.30;;;23.90;99.90;;;;;;5055686;28;20539;-40
2023/08/25 10:15:08;;;;;;;32.83;16.75;;;23.90;99.90;;;;;;5055628;28;20389;-39
2023/08/25 10:17:35;;;;;;;32.78;17.88;;;23.80;99.90;;;;;;5055502;28;20028;-40
2023/08/25 10:20:04;;;;;;;;;;;23.80;99.90;;;;;;5055929;28;20044;-39
2023/08/25 10:22:33;;;;;;;27.77;15.80;;;23.80;99.90;;;;;;5055468;28;19913;-41
2023/08/25 10:25:05;;;;;;;33.42;17.85;;;23.70;99.90;;;;;;5054104;28;20061;-37
2023/08/25 10:27:32;;;;;;;36.55;17.85;;;23.70;99.90;;;;;;5055291;28;20013;-41
2023/08/25 10:29:59;;;;;;;34.30;18.85;;;23.70;99.90;;;;;;5055170;28;20029;-41
2023/08/25 10:32:48;;;;;;;32.63;16.75;;;23.60;99.90;;;;;;5055250;28;20033;-41
2023/08/25 10:35:14;;;;;;;33.22;17.08;;;23.40;99.90;;;;;;5055016;28;20041;-41
2023/08/25 10:37:40;;;;;;;32.70;16.10;;;23.40;99.90;;;;;;5053819;28;20044;-40
2023/08/25 10:40:12;;;;;;;30.08;15.95;;;23.30;99.90;;;;;;5051230;28;20413;-38
2023/08/25 10:42:38;;;;;;;30.10;17.02;;;23.30;99.90;;;;;;5053106;28;20029;-41
2023/08/25 10:45:10;;;;;;;29.13;15.23;;;23.20;99.90;;;;;;5054668;28;20033;-42
2023/08/25 10:47:46;;;;;;;32.53;16.65;;;23.10;99.90;;;;;;5055206;28;20380;-37
2023/08/25 10:50:13;;;;;;;26.83;15.65;;;23.10;99.90;;;;;;5053819;28;20033;-40
2023/08/25 10:52:43;;;;;;;32.90;18.30;;;23.10;99.90;;;;;;5054833;28;20071;-39
2023/08/25 10:55:28;;;;;;;41.40;20.80;;;23.00;99.90;;;;;;5055306;28;20104;-38
2023/08/25 10:58:05;;;;;;;35.92;19.30;;;23.00;99.90;;;;;;5053743;28;20040;-40
2023/08/25 11:00:33;;;;;;;37.50;19.05;;;23.00;99.90;;;;;;5054574;28;20153;-41
2023/08/25 11:03:01;;;;;;;33.47;18.80;;;23.00;99.90;;;;;;5054724;28;20060;-38
2023/08/25 11:05:31;;;;;;;36.50;19.50;;;23.00;99.90;;;;;;5054560;28;20033;-38
2023/08/25 11:07:57;;;;;;;37.28;20.30;;;23.10;99.90;;;;;;5054744;28;20489;-37
2023/08/25 11:10:27;;;;;;;37.83;20.55;;;23.10;99.90;;;;;;5054754;28;20024;-40
2023/08/25 11:12:53;;;;;;;34.50;18.42;;;23.10;99.90;;;;;;5054458;28;20021;-39
2023/08/25 11:15:22;;;;;;;38.85;19.10;;;23.10;99.90;;;;;;5053707;28;20060;-38
2023/08/25 11:17:50;;;;;;;42.90;19.08;;;23.10;99.90;;;;;;5054315;28;20037;-39
2023/08/25 11:20:16;;;;;;;42.70;20.90;;;23.20;99.90;;;;;;5054282;28;20064;-37
2023/08/25 11:22:59;;;;;;;43.38;21.55;;;23.30;99.90;;;;;;5054286;28;20041;-39
2023/08/25 11:25:25;;;;;;;40.28;21.02;;;23.40;99.90;;;;;;5054180;28;20033;-39
2023/08/25 11:27:52;;;;;;;38.28;20.27;;;23.50;99.90;;;;;;5054436;28;20025;-40
2023/08/25 11:30:18;;;;;;;35.67;20.70;;;23.50;99.90;;;;;;5054366;28;20522;-39
2023/08/25 11:32:48;;;;;;;33.17;17.33;;;23.60;99.90;;;;;;5053047;28;20104;-39
2023/08/25 11:35:13;;;;;;;26.10;14.30;;;23.60;99.90;;;;;;5053872;28;20047;-38
2023/08/25 11:37:40;;;;;;;21.70;12.82;;;23.50;99.90;;;;;;5054048;28;20029;-44
2023/08/25 11:40:12;;;;;;;28.07;13.63;;;23.50;99.90;;;;;;5054020;28;20040;-39
2023/08/25 11:42:42;;;;;;;22.73;13.13;;;23.50;99.90;;;;;;5053829;28;20033;-39
2023/08/25 11:45:08;;;;;;;23.80;14.13;;;23.50;99.90;;;;;;5065864;28;20504;-41
2023/08/25 11:47:34;;;;;;;18.43;11.40;;;23.50;99.90;;;;;;5053439;28;20027;-39
2023/08/25 11:50:01;;;;;;;24.60;11.80;;;23.50;99.90;;;;;;5053053;28;20477;-40
2023/08/25 11:52:27;;;;;;;23.80;12.48;;;23.60;99.90;;;;;;5035836;28;20579;-42
2023/08/25 11:54:53;;;;;;;20.45;11.13;;;23.70;99.90;;;;;;5053706;28;20068;-42
2023/08/25 11:57:19;;;;;;;28.25;12.75;;;23.80;99.90;;;;;;5052081;28;20432;-41
2023/08/25 11:59:49;;;;;;;27.25;13.45;;;23.90;99.90;;;;;;5052427;28;20513;-44
2023/08/25 12:02:16;;;;;;;26.63;14.52;;;23.90;99.90;;;;;;5050429;28;20025;-40
2023/08/25 12:04:52;;;;;;;23.52;13.75;;;23.90;99.90;;;;;;5052479;28;20047;-43
2023/08/25 12:07:25;;;;;;;30.83;15.13;;;23.90;99.90;;;;;;5050199;28;20028;-39
2023/08/25 12:09:55;;;;;;;25.15;15.43;;;24.00;99.90;;;;;;5052385;28;20025;-40
2023/08/25 12:12:21;;;;;;;29.55;16.33;;;24.00;99.90;;;;;;5052447;28;20021;-41
2023/08/25 12:14:51;;;;;;;30.60;16.90;;;24.00;99.90;;;;;;5053207;28;20029;-39
2023/08/25 12:17:36;;;;;;;30.65;17.30;;;23.90;99.90;;;;;;5053490;28;20029;-40
2023/08/25 12:20:13;;;;;;;27.73;14.18;;;23.80;99.90;;;;;;5053603;28;20032;-41
2023/08/25 12:22:59;;;;;;;30.30;16.30;;;23.80;99.90;;;;;;5052395;28;20040;-39
2023/08/25 12:25:25;;;;;;;36.28;17.50;;;23.70;99.90;;;;;;5035096;28;20033;-39
2023/08/25 12:27:54;;;;;;;27.77;16.25;;;23.60;99.90;;;;;;5053288;28;20387;-40
2023/08/25 12:30:20;;;;;;;29.88;17.50;;;23.60;99.90;;;;;;5052956;28;20064;-42
2023/08/25 12:32:45;;;;;;;33.47;17.48;;;23.50;99.90;;;;;;5053294;28;20036;-39